Okha, Russia
Current Conditions -  °F | °C
As of 12:00 AM on Saturday 25 Oct 2014 (Local Time) from UHSS Reporting Station
Scattered Clouds Scattered Clouds  
Wind Chill: 41°   Ceiling: Unl
Heat Index: 41°   Visibility: 6mi
Dew Point: 39°   Wind: 2mph
Humidity: 93%   Direction: 130°SE
Pressure: 29.97"   Gusts: NA
Location:  53.57°N, 142.95°E
Report Text: UHSS 241300Z 13001MPS 9999 SCT033 05/04 Q1015 RMK QFE760/1013
Loading
Personal Weather Stations






























Interactive Weather Map
Tropical Storm Tracking
New forecast layout! Learn more

10-Day Weather Forecast

Advertisements
Track Severe Weather on mobile